sensor_id;sensor_type;location;lat;lon;timestamp;pressure;altitude;pressure_sealevel;temperature;humidity
6198;BME280;3132;42.622;23.328;2023-09-19T00:01:06;93226.06;;;15.39;92.77
6198;BME280;3132;42.622;23.328;2023-09-19T00:03:34;93237.75;;;15.46;92.33
6198;BME280;3132;42.622;23.328;2023-09-19T00:06:02;93243.81;;;15.47;92.31
6198;BME280;3132;42.622;23.328;2023-09-19T00:08:28;93242.41;;;15.36;93.48
6198;BME280;3132;42.622;23.328;2023-09-19T00:10:54;93244.53;;;15.20;94.17
6198;BME280;3132;42.622;23.328;2023-09-19T00:13:20;93242.72;;;14.89;97.20
6198;BME280;3132;42.622;23.328;2023-09-19T00:15:46;93239.19;;;14.80;97.98
6198;BME280;3132;42.622;23.328;2023-09-19T00:18:14;93234.84;;;15.02;96.66
6198;BME280;3132;42.622;23.328;2023-09-19T00:20:41;93231.47;;;15.15;95.76
6198;BME280;3132;42.622;23.328;2023-09-19T00:23:07;93229.72;;;15.11;95.46
6198;BME280;3132;42.622;23.328;2023-09-19T00:25:36;93236.34;;;15.22;95.63
6198;BME280;3132;42.622;23.328;2023-09-19T00:28:03;93233.81;;;15.17;95.50
6198;BME280;3132;42.622;23.328;2023-09-19T00:30:29;93231.84;;;15.09;96.26
6198;BME280;3132;42.622;23.328;2023-09-19T00:32:54;93230.09;;;15.18;96.92
6198;BME280;3132;42.622;23.328;2023-09-19T00:35:20;93232.34;;;15.11;97.00
6198;BME280;3132;42.622;23.328;2023-09-19T00:37:49;93224.44;;;15.11;96.73
6198;BME280;3132;42.622;23.328;2023-09-19T00:40:14;93213.94;;;15.11;96.28
6198;BME280;3132;42.622;23.328;2023-09-19T00:42:45;93215.84;;;14.92;97.27
6198;BME280;3132;42.622;23.328;2023-09-19T00:45:12;93215.25;;;14.95;97.78
6198;BME280;3132;42.622;23.328;2023-09-19T00:47:44;93209.25;;;15.08;97.88
6198;BME280;3132;42.622;23.328;2023-09-19T00:50:12;93215.56;;;15.07;96.91
6198;BME280;3132;42.622;23.328;2023-09-19T00:52:40;93215.69;;;15.02;97.02
6198;BME280;3132;42.622;23.328;2023-09-19T00:55:10;93224.81;;;14.91;97.38
6198;BME280;3132;42.622;23.328;2023-09-19T00:57:39;93224.19;;;14.80;97.26
6198;BME280;3132;42.622;23.328;2023-09-19T01:00:06;93225.63;;;14.73;97.87
6198;BME280;3132;42.622;23.328;2023-09-19T01:02:34;93229.44;;;14.80;98.11
6198;BME280;3132;42.622;23.328;2023-09-19T01:05:00;93203.31;;;14.57;98.21
6198;BME280;3132;42.622;23.328;2023-09-19T01:07:26;93217.72;;;14.59;99.12
6198;BME280;3132;42.622;23.328;2023-09-19T01:09:56;93203.09;;;14.53;99.89
6198;BME280;3132;42.622;23.328;2023-09-19T01:12:30;93214.28;;;14.59;99.89
6198;BME280;3132;42.622;23.328;2023-09-19T01:15:55;93220.13;;;14.56;100.00
6198;BME280;3132;42.622;23.328;2023-09-19T01:18:00;93216.78;;;14.69;99.56
6198;BME280;3132;42.622;23.328;2023-09-19T01:20:40;93213.63;;;14.67;99.17
6198;BME280;3132;42.622;23.328;2023-09-19T01:31:23;93217.75;;;14.40;100.00
6198;BME280;3132;42.622;23.328;2023-09-19T01:33:59;93220.38;;;14.40;100.00
6198;BME280;3132;42.622;23.328;2023-09-19T01:36:32;93212.00;;;14.38;100.00
6198;BME280;3132;42.622;23.328;2023-09-19T01:39:02;93219.88;;;14.38;100.00
6198;BME280;3132;42.622;23.328;2023-09-19T01:44:06;93208.75;;;14.60;100.00
6198;BME280;3132;42.622;23.328;2023-09-19T01:46:35;93208.84;;;14.55;100.00
6198;BME280;3132;42.622;23.328;2023-09-19T01:49:36;93207.53;;;14.39;100.00
6198;BME280;3132;42.622;23.328;2023-09-19T01:52:11;93211.53;;;14.36;100.00
6198;BME280;3132;42.622;23.328;2023-09-19T01:54:51;93212.84;;;14.34;100.00
6198;BME280;3132;42.622;23.328;2023-09-19T01:57:41;93209.13;;;14.16;100.00
6198;BME280;3132;42.622;23.328;2023-09-19T02:00:10;93211.88;;;14.11;100.00
6198;BME280;3132;42.622;23.328;2023-09-19T02:02:42;93215.13;;;14.22;100.00
6198;BME280;3132;42.622;23.328;2023-09-19T02:05:10;93224.28;;;14.24;100.00
6198;BME280;3132;42.622;23.328;2023-09-19T02:07:35;93231.28;;;14.10;100.00
6198;BME280;3132;42.622;23.328;2023-09-19T02:10:04;93225.84;;;14.07;100.00
6198;BME280;3132;42.622;23.328;2023-09-19T02:12:31;93222.38;;;14.11;100.00
6198;BME280;3132;42.622;23.328;2023-09-19T02:14:58;93221.50;;;14.16;100.00
6198;BME280;3132;42.622;23.328;2023-09-19T02:17:27;93225.63;;;14.03;100.00
6198;BME280;3132;42.622;23.328;2023-09-19T02:19:55;93177.66;;;13.61;100.00
6198;BME280;3132;42.622;23.328;2023-09-19T02:22:21;93219.59;;;13.84;100.00
6198;BME280;3132;42.622;23.328;2023-09-19T02:24:50;93230.03;;;13.89;100.00
6198;BME280;3132;42.622;23.328;2023-09-19T02:27:16;93225.47;;;13.95;100.00
6198;BME280;3132;42.622;23.328;2023-09-19T02:29:42;93219.31;;;14.04;100.00
6198;BME280;3132;42.622;23.328;2023-09-19T02:32:07;93212.44;;;14.08;100.00
6198;BME280;3132;42.622;23.328;2023-09-19T02:34:35;93205.19;;;14.00;100.00
6198;BME280;3132;42.622;23.328;2023-09-19T02:37:03;93205.88;;;14.06;100.00
6198;BME280;3132;42.622;23.328;2023-09-19T02:39:30;93188.88;;;14.03;100.00
6198;BME280;3132;42.622;23.328;2023-09-19T02:41:56;93197.66;;;13.94;100.00
6198;BME280;3132;42.622;23.328;2023-09-19T02:44:21;93193.97;;;13.95;100.00
6198;BME280;3132;42.622;23.328;2023-09-19T02:46:49;93157.84;;;13.68;100.00
6198;BME280;3132;42.622;23.328;2023-09-19T02:49:14;93187.97;;;13.94;100.00
6198;BME280;3132;42.622;23.328;2023-09-19T02:51:40;93184.31;;;13.90;100.00
6198;BME280;3132;42.622;23.328;2023-09-19T02:54:05;93183.19;;;13.78;100.00
6198;BME280;3132;42.622;23.328;2023-09-19T02:56:31;93180.50;;;13.83;100.00
6198;BME280;3132;42.622;23.328;2023-09-19T02:58:57;93180.50;;;13.83;100.00
6198;BME280;3132;42.622;23.328;2023-09-19T03:01:23;93179.00;;;13.77;100.00
6198;BME280;3132;42.622;23.328;2023-09-19T03:03:49;93174.56;;;13.77;100.00
6198;BME280;3132;42.622;23.328;2023-09-19T03:06:15;93176.66;;;13.75;100.00
6198;BME280;3132;42.622;23.328;2023-09-19T03:08:41;93171.34;;;13.62;100.00
6198;BME280;3132;42.622;23.328;2023-09-19T03:11:10;93156.53;;;13.52;100.00
6198;BME280;3132;42.622;23.328;2023-09-19T03:13:38;93168.28;;;13.73;100.00
6198;BME280;3132;42.622;23.328;2023-09-19T03:16:06;93166.75;;;13.72;100.00
6198;BME280;3132;42.622;23.328;2023-09-19T03:18:34;93160.00;;;13.66;100.00
6198;BME280;3132;42.622;23.328;2023-09-19T03:20:59;93170.97;;;13.68;100.00
6198;BME280;3132;42.622;23.328;2023-09-19T03:23:28;93169.84;;;13.74;100.00
6198;BME280;3132;42.622;23.328;2023-09-19T03:25:56;93174.91;;;13.71;100.00
6198;BME280;3132;42.622;23.328;2023-09-19T03:28:24;93167.66;;;13.63;100.00
6198;BME280;3132;42.622;23.328;2023-09-19T03:31:02;93170.84;;;13.78;100.00
6198;BME280;3132;42.622;23.328;2023-09-19T03:33:28;93163.84;;;13.74;100.00
6198;BME280;3132;42.622;23.328;2023-09-19T03:35:56;93170.22;;;13.68;100.00
6198;BME280;3132;42.622;23.328;2023-09-19T03:38:23;93161.84;;;13.66;100.00
6198;BME280;3132;42.622;23.328;2023-09-19T03:40:49;93171.06;;;13.63;100.00
6198;BME280;3132;42.622;23.328;2023-09-19T03:43:14;93160.06;;;13.61;100.00
6198;BME280;3132;42.622;23.328;2023-09-19T03:45:39;93179.13;;;13.67;100.00
6198;BME280;3132;42.622;23.328;2023-09-19T03:48:11;93174.16;;;13.65;100.00
6198;BME280;3132;42.622;23.328;2023-09-19T03:50:36;93184.25;;;13.58;100.00
6198;BME280;3132;42.622;23.328;2023-09-19T03:53:02;93184.28;;;13.35;100.00
6198;BME280;3132;42.622;23.328;2023-09-19T03:55:28;93189.72;;;13.20;100.00
6198;BME280;3132;42.622;23.328;2023-09-19T03:57:55;93173.50;;;13.36;100.00
6198;BME280;3132;42.622;23.328;2023-09-19T04:00:20;93193.72;;;13.54;100.00
6198;BME280;3132;42.622;23.328;2023-09-19T04:02:48;93180.47;;;13.46;100.00
6198;BME280;3132;42.622;23.328;2023-09-19T04:05:13;93194.25;;;13.56;100.00
6198;BME280;3132;42.622;23.328;2023-09-19T04:07:39;93199.44;;;13.61;100.00
6198;BME280;3132;42.622;23.328;2023-09-19T04:10:05;93194.25;;;13.56;100.00
6198;BME280;3132;42.622;23.328;2023-09-19T04:12:31;93192.69;;;13.55;100.00
6198;BME280;3132;42.622;23.328;2023-09-19T04:14:57;93202.28;;;13.65;100.00
6198;BME280;3132;42.622;23.328;2023-09-19T04:17:23;93198.34;;;13.62;100.00
6198;BME280;3132;42.622;23.328;2023-09-19T04:19:49;93209.34;;;13.64;100.00
6198;BME280;3132;42.622;23.328;2023-09-19T04:22:14;93205.38;;;13.67;100.00
6198;BME280;3132;42.622;23.328;2023-09-19T04:24:39;93212.41;;;13.71;100.00
6198;BME280;3132;42.622;23.328;2023-09-19T04:27:05;93213.47;;;13.70;100.00
6198;BME280;3132;42.622;23.328;2023-09-19T04:29:30;93208.16;;;13.75;100.00
6198;BME280;3132;42.622;23.328;2023-09-19T04:31:56;93204.25;;;13.73;100.00
6198;BME280;3132;42.622;23.328;2023-09-19T04:34:24;93195.75;;;13.81;100.00
6198;BME280;3132;42.622;23.328;2023-09-19T04:36:50;93188.44;;;13.96;100.00
6198;BME280;3132;42.622;23.328;2023-09-19T04:39:15;93183.66;;;14.17;100.00
6198;BME280;3132;42.622;23.328;2023-09-19T04:41:41;93180.97;;;14.22;100.00
6198;BME280;3132;42.622;23.328;2023-09-19T04:44:07;93198.94;;;14.33;100.00
6198;BME280;3132;42.622;23.328;2023-09-19T04:46:33;93196.72;;;14.40;100.00
6198;BME280;3132;42.622;23.328;2023-09-19T04:48:59;93188.56;;;14.42;100.00
6198;BME280;3132;42.622;23.328;2023-09-19T04:51:24;93187.41;;;14.48;100.00
6198;BME280;3132;42.622;23.328;2023-09-19T04:53:51;93190.66;;;14.59;100.00
6198;BME280;3132;42.622;23.328;2023-09-19T04:56:17;93191.88;;;14.80;100.00
6198;BME280;3132;42.622;23.328;2023-09-19T04:58:42;93191.59;;;14.95;100.00
6198;BME280;3132;42.622;23.328;2023-09-19T05:01:08;93188.38;;;14.98;100.00
6198;BME280;3132;42.622;23.328;2023-09-19T05:03:36;93183.34;;;15.15;100.00
6198;BME280;3132;42.622;23.328;2023-09-19T05:06:02;93181.00;;;15.27;100.00
6198;BME280;3132;42.622;23.328;2023-09-19T05:08:28;93181.97;;;15.17;100.00
6198;BME280;3132;42.622;23.328;2023-09-19T05:10:53;93168.53;;;15.32;100.00
6198;BME280;3132;42.622;23.328;2023-09-19T05:13:21;93179.25;;;15.36;99.46
6198;BME280;3132;42.622;23.328;2023-09-19T05:15:48;93176.91;;;15.34;99.52
6198;BME280;3132;42.622;23.328;2023-09-19T05:18:15;93182.31;;;15.92;96.04
6198;BME280;3132;42.622;23.328;2023-09-19T05:20:40;93187.78;;;15.82;96.74
6198;BME280;3132;42.622;23.328;2023-09-19T05:23:06;93180.50;;;15.79;97.57
6198;BME280;3132;42.622;23.328;2023-09-19T05:25:38;93185.69;;;16.28;96.12
6198;BME280;3132;42.622;23.328;2023-09-19T05:28:09;93191.97;;;16.54;93.83
6198;BME280;3132;42.622;23.328;2023-09-19T05:30:37;93184.00;;;16.68;93.00
6198;BME280;3132;42.622;23.328;2023-09-19T05:33:04;93177.44;;;16.21;93.70
6198;BME280;3132;42.622;23.328;2023-09-19T05:35:30;93175.97;;;16.73;89.41
6198;BME280;3132;42.622;23.328;2023-09-19T05:37:56;93173.34;;;16.81;88.85
6198;BME280;3132;42.622;23.328;2023-09-19T05:40:24;93186.44;;;16.64;89.77
6198;BME280;3132;42.622;23.328;2023-09-19T05:42:49;93179.72;;;16.36;91.38
6198;BME280;3132;42.622;23.328;2023-09-19T05:45:16;93183.31;;;16.40;90.60
6198;BME280;3132;42.622;23.328;2023-09-19T05:47:48;93184.81;;;16.33;92.87
6198;BME280;3132;42.622;23.328;2023-09-19T05:50:14;93183.06;;;16.28;92.54
6198;BME280;3132;42.622;23.328;2023-09-19T05:52:42;93181.63;;;16.22;92.36
6198;BME280;3132;42.622;23.328;2023-09-19T05:55:08;93178.97;;;16.58;90.24
6198;BME280;3132;42.622;23.328;2023-09-19T05:57:34;93173.72;;;16.88;90.21
6198;BME280;3132;42.622;23.328;2023-09-19T06:00:00;93170.31;;;17.27;87.50
6198;BME280;3132;42.622;23.328;2023-09-19T06:02:25;93169.03;;;17.55;85.29
6198;BME280;3132;42.622;23.328;2023-09-19T06:04:54;93169.59;;;17.43;86.40
6198;BME280;3132;42.622;23.328;2023-09-19T06:07:21;93164.84;;;16.84;88.87
6198;BME280;3132;42.622;23.328;2023-09-19T06:09:47;93164.00;;;16.67;91.23
6198;BME280;3132;42.622;23.328;2023-09-19T06:12:12;93154.41;;;17.10;88.03
6198;BME280;3132;42.622;23.328;2023-09-19T06:14:42;93162.03;;;17.11;87.73
6198;BME280;3132;42.622;23.328;2023-09-19T06:17:08;93174.31;;;17.63;85.94
6198;BME280;3132;42.622;23.328;2023-09-19T06:19:34;93169.72;;;17.86;85.24
6198;BME280;3132;42.622;23.328;2023-09-19T06:21:59;93164.25;;;17.26;86.72
6198;BME280;3132;42.622;23.328;2023-09-19T06:24:24;93166.75;;;17.88;83.99
6198;BME280;3132;42.622;23.328;2023-09-19T06:26:51;93161.47;;;17.88;84.37
6198;BME280;3132;42.622;23.328;2023-09-19T06:29:17;93157.75;;;17.80;83.82
6198;BME280;3132;42.622;23.328;2023-09-19T06:31:43;93161.97;;;18.24;82.56
6198;BME280;3132;42.622;23.328;2023-09-19T06:34:10;93166.50;;;18.15;83.55
6198;BME280;3132;42.622;23.328;2023-09-19T06:36:35;93169.59;;;18.59;81.24
6198;BME280;3132;42.622;23.328;2023-09-19T06:39:00;93169.13;;;18.66;80.07
6198;BME280;3132;42.622;23.328;2023-09-19T06:41:26;93145.91;;;18.71;79.36
6198;BME280;3132;42.622;23.328;2023-09-19T06:43:51;93163.81;;;18.66;78.76
6198;BME280;3132;42.622;23.328;2023-09-19T06:46:18;93174.25;;;18.28;81.52
6198;BME280;3132;42.622;23.328;2023-09-19T06:48:44;93161.47;;;17.96;82.15
6198;BME280;3132;42.622;23.328;2023-09-19T06:51:09;93175.59;;;17.75;84.23
6198;BME280;3132;42.622;23.328;2023-09-19T06:53:35;93181.56;;;18.57;81.04
6198;BME280;3132;42.622;23.328;2023-09-19T06:56:02;93175.34;;;18.53;79.60
6198;BME280;3132;42.622;23.328;2023-09-19T06:58:27;93171.38;;;18.93;78.75
6198;BME280;3132;42.622;23.328;2023-09-19T07:00:53;93171.84;;;19.41;76.99
6198;BME280;3132;42.622;23.328;2023-09-19T07:03:19;93177.69;;;19.17;76.61
6198;BME280;3132;42.622;23.328;2023-09-19T07:05:47;93185.59;;;18.20;79.63
6198;BME280;3132;42.622;23.328;2023-09-19T07:08:13;93188.44;;;18.41;80.68
6198;BME280;3132;42.622;23.328;2023-09-19T07:10:40;93175.19;;;18.07;81.66
6198;BME280;3132;42.622;23.328;2023-09-19T07:13:07;93188.22;;;18.80;79.26
6198;BME280;3132;42.622;23.328;2023-09-19T07:15:37;93180.16;;;18.25;79.36
6198;BME280;3132;42.622;23.328;2023-09-19T07:18:12;93170.22;;;18.22;81.87
6198;BME280;3132;42.622;23.328;2023-09-19T07:20:39;93190.44;;;19.24;77.60
6198;BME280;3132;42.622;23.328;2023-09-19T07:23:05;93190.50;;;19.82;74.43
6198;BME280;3132;42.622;23.328;2023-09-19T07:25:31;93196.22;;;19.17;76.55
6198;BME280;3132;42.622;23.328;2023-09-19T07:27:57;93190.06;;;19.51;75.50
6198;BME280;3132;42.622;23.328;2023-09-19T07:30:25;93190.00;;;19.60;74.24
6198;BME280;3132;42.622;23.328;2023-09-19T07:32:51;93183.69;;;19.44;76.25
6198;BME280;3132;42.622;23.328;2023-09-19T07:35:18;93194.44;;;18.84;77.28
6198;BME280;3132;42.622;23.328;2023-09-19T07:37:48;93190.41;;;18.78;78.38
6198;BME280;3132;42.622;23.328;2023-09-19T07:40:21;93196.25;;;19.55;75.52
6198;BME280;3132;42.622;23.328;2023-09-19T07:42:49;93195.16;;;19.85;73.73
6198;BME280;3132;42.622;23.328;2023-09-19T07:45:15;93191.78;;;19.76;73.17
6198;BME280;3132;42.622;23.328;2023-09-19T07:47:45;93189.63;;;19.41;75.38
6198;BME280;3132;42.622;23.328;2023-09-19T07:50:12;93193.53;;;18.71;78.94
6198;BME280;3132;42.622;23.328;2023-09-19T07:52:38;93200.81;;;19.46;76.41
6198;BME280;3132;42.622;23.328;2023-09-19T07:55:05;93199.56;;;19.81;73.27
6198;BME280;3132;42.622;23.328;2023-09-19T07:57:35;93204.75;;;19.40;76.30
6198;BME280;3132;42.622;23.328;2023-09-19T08:00:00;93197.91;;;19.39;75.92
6198;BME280;3132;42.622;23.328;2023-09-19T08:02:25;93206.03;;;19.63;75.15
6198;BME280;3132;42.622;23.328;2023-09-19T08:04:51;93206.63;;;19.98;73.91
6198;BME280;3132;42.622;23.328;2023-09-19T08:07:17;93196.81;;;19.69;75.87
6198;BME280;3132;42.622;23.328;2023-09-19T08:09:43;93204.97;;;19.56;76.21
6198;BME280;3132;42.622;23.328;2023-09-19T08:12:13;93194.88;;;19.78;74.97
6198;BME280;3132;42.622;23.328;2023-09-19T08:14:40;93191.97;;;19.42;75.75
6198;BME280;3132;42.622;23.328;2023-09-19T08:17:07;93189.25;;;20.09;74.46
6198;BME280;3132;42.622;23.328;2023-09-19T08:19:33;93192.53;;;20.35;72.64
6198;BME280;3132;42.622;23.328;2023-09-19T08:21:59;93178.78;;;20.12;72.43
6198;BME280;3132;42.622;23.328;2023-09-19T08:24:28;93182.06;;;20.38;72.76
6198;BME280;3132;42.622;23.328;2023-09-19T08:26:57;93180.22;;;20.72;72.25
6198;BME280;3132;42.622;23.328;2023-09-19T08:29:23;93174.97;;;20.63;71.79
6198;BME280;3132;42.622;23.328;2023-09-19T08:31:58;93179.13;;;20.52;71.67
6198;BME280;3132;42.622;23.328;2023-09-19T08:34:25;93167.94;;;20.26;74.86
6198;BME280;3132;42.622;23.328;2023-09-19T08:36:51;93175.53;;;20.68;70.51
6198;BME280;3132;42.622;23.328;2023-09-19T08:39:18;93188.94;;;20.51;73.10
6198;BME280;3132;42.622;23.328;2023-09-19T08:41:44;93164.91;;;20.68;72.17
6198;BME280;3132;42.622;23.328;2023-09-19T08:44:09;93188.44;;;20.58;72.75
6198;BME280;3132;42.622;23.328;2023-09-19T08:46:37;93200.34;;;20.85;70.88
6198;BME280;3132;42.622;23.328;2023-09-19T08:52:32;93191.03;;;20.99;70.32
6198;BME280;3132;42.622;23.328;2023-09-19T08:55:01;93185.91;;;21.39;69.04
6198;BME280;3132;42.622;23.328;2023-09-19T08:57:33;93186.69;;;21.51;68.75
6198;BME280;3132;42.622;23.328;2023-09-19T09:00:01;93181.63;;;21.82;67.82
6198;BME280;3132;42.622;23.328;2023-09-19T09:02:27;93179.09;;;21.86;67.77
6198;BME280;3132;42.622;23.328;2023-09-19T09:04:55;93183.41;;;21.90;68.06
6198;BME280;3132;42.622;23.328;2023-09-19T09:07:22;93175.72;;;21.41;69.35
6198;BME280;3132;42.622;23.328;2023-09-19T09:09:48;93163.28;;;21.77;67.34
6198;BME280;3132;42.622;23.328;2023-09-19T09:12:14;93174.00;;;21.81;68.79
6198;BME280;3132;42.622;23.328;2023-09-19T09:14:44;93175.63;;;21.73;67.89
6198;BME280;3132;42.622;23.328;2023-09-19T09:17:10;93170.66;;;21.48;68.78
6198;BME280;3132;42.622;23.328;2023-09-19T09:19:36;93168.66;;;21.81;68.95
6198;BME280;3132;42.622;23.328;2023-09-19T09:22:09;93158.66;;;21.30;69.95
6198;BME280;3132;42.622;23.328;2023-09-19T09:24:35;93150.41;;;21.55;70.12
6198;BME280;3132;42.622;23.328;2023-09-19T09:27:06;93157.25;;;21.56;68.39
6198;BME280;3132;42.622;23.328;2023-09-19T09:29:45;93154.03;;;21.39;70.32
6198;BME280;3132;42.622;23.328;2023-09-19T09:32:25;93148.06;;;21.54;68.23
6198;BME280;3132;42.622;23.328;2023-09-19T09:34:56;93152.38;;;21.34;71.10
6198;BME280;3132;42.622;23.328;2023-09-19T09:37:22;93146.84;;;21.15;71.22
6198;BME280;3132;42.622;23.328;2023-09-19T09:39:57;93154.38;;;21.85;68.17
6198;BME280;3132;42.622;23.328;2023-09-19T09:42:36;93136.78;;;20.88;70.83
6198;BME280;3132;42.622;23.328;2023-09-19T09:45:21;93145.38;;;21.18;70.62
6198;BME280;3132;42.622;23.328;2023-09-19T09:48:00;93139.53;;;21.48;69.82
6198;BME280;3132;42.622;23.328;2023-09-19T09:50:35;93141.34;;;22.20;66.66
6198;BME280;3132;42.622;23.328;2023-09-19T09:56:03;93126.63;;;22.10;68.06
6198;BME280;3132;42.622;23.328;2023-09-19T09:58:55;93130.59;;;22.84;66.32
6198;BME280;3132;42.622;23.328;2023-09-19T10:01:21;93128.28;;;22.98;63.64
6198;BME280;3132;42.622;23.328;2023-09-19T10:03:57;93115.88;;;22.19;67.92
6198;BME280;3132;42.622;23.328;2023-09-19T10:06:22;93122.69;;;22.32;67.65
6198;BME280;3132;42.622;23.328;2023-09-19T10:09:09;93124.38;;;22.24;67.62
6198;BME280;3132;42.622;23.328;2023-09-19T10:12:02;93129.69;;;22.24;67.86
6198;BME280;3132;42.622;23.328;2023-09-19T10:14:30;93138.13;;;21.75;68.69
6198;BME280;3132;42.622;23.328;2023-09-19T10:17:02;93127.88;;;22.13;68.48
6198;BME280;3132;42.622;23.328;2023-09-19T10:19:36;93134.03;;;22.84;66.45
6198;BME280;3132;42.622;23.328;2023-09-19T10:22:04;93129.97;;;22.47;66.40
6198;BME280;3132;42.622;23.328;2023-09-19T10:24:33;93123.22;;;22.38;67.90
6198;BME280;3132;42.622;23.328;2023-09-19T10:27:02;93123.16;;;22.89;64.42
6198;BME280;3132;42.622;23.328;2023-09-19T10:29:32;93127.34;;;22.90;64.10
6198;BME280;3132;42.622;23.328;2023-09-19T10:32:01;93104.41;;;22.31;65.90
6198;BME280;3132;42.622;23.328;2023-09-19T10:34:34;93119.44;;;22.39;66.94
6198;BME280;3132;42.622;23.328;2023-09-19T10:37:02;93111.97;;;23.15;65.28
6198;BME280;3132;42.622;23.328;2023-09-19T10:39:31;93112.59;;;23.39;63.06
6198;BME280;3132;42.622;23.328;2023-09-19T10:42:01;93117.88;;;23.51;63.25
6198;BME280;3132;42.622;23.328;2023-09-19T10:44:32;93124.91;;;23.44;62.90
6198;BME280;3132;42.622;23.328;2023-09-19T10:46:58;93109.75;;;23.01;63.40
6198;BME280;3132;42.622;23.328;2023-09-19T10:49:24;93115.16;;;22.89;64.89
6198;BME280;3132;42.622;23.328;2023-09-19T10:51:53;93111.81;;;23.23;63.22
6198;BME280;3132;42.622;23.328;2023-09-19T10:54:22;93106.44;;;23.35;62.26
6198;BME280;3132;42.622;23.328;2023-09-19T10:56:52;93106.53;;;23.39;62.29
6198;BME280;3132;42.622;23.328;2023-09-19T10:59:20;93103.25;;;23.14;63.41
6198;BME280;3132;42.622;23.328;2023-09-19T11:01:49;93103.06;;;23.23;62.91
6198;BME280;3132;42.622;23.328;2023-09-19T11:04:37;93095.50;;;23.40;61.84
6198;BME280;3132;42.622;23.328;2023-09-19T11:07:13;93095.66;;;23.47;61.41
6198;BME280;3132;42.622;23.328;2023-09-19T11:09:55;93100.16;;;23.43;61.23
6198;BME280;3132;42.622;23.328;2023-09-19T11:15:06;93097.41;;;23.90;60.88
6198;BME280;3132;42.622;23.328;2023-09-19T11:17:43;93102.53;;;23.64;61.30
6198;BME280;3132;42.622;23.328;2023-09-19T11:30:34;93080.16;;;22.60;64.16
6198;BME280;3132;42.622;23.328;2023-09-19T11:46:33;93062.16;;;23.46;61.97
6198;BME280;3132;42.622;23.328;2023-09-19T11:49:07;93054.47;;;23.60;61.42
6198;BME280;3132;42.622;23.328;2023-09-19T11:51:42;93032.84;;;23.00;63.11
6198;BME280;3132;42.622;23.328;2023-09-19T11:54:11;93045.78;;;23.63;62.04
6198;BME280;3132;42.622;23.328;2023-09-19T11:56:43;93043.53;;;23.65;63.08
6198;BME280;3132;42.622;23.328;2023-09-19T11:59:09;93047.84;;;23.89;60.39
6198;BME280;3132;42.622;23.328;2023-09-19T12:01:37;93037.56;;;23.37;63.39
6198;BME280;3132;42.622;23.328;2023-09-19T12:04:08;93037.38;;;23.15;63.33
6198;BME280;3132;42.622;23.328;2023-09-19T12:06:33;93031.91;;;22.92;63.68
6198;BME280;3132;42.622;23.328;2023-09-19T12:08:59;93037.94;;;22.89;65.30
6198;BME280;3132;42.622;23.328;2023-09-19T12:11:30;92975.72;;;22.97;62.60
6198;BME280;3132;42.622;23.328;2023-09-19T12:13:59;93018.75;;;23.30;61.92
6198;BME280;3132;42.622;23.328;2023-09-19T12:16:26;93024.59;;;23.20;62.81
6198;BME280;3132;42.622;23.328;2023-09-19T12:18:56;93009.00;;;23.22;62.97
6198;BME280;3132;42.622;23.328;2023-09-19T12:21:30;93026.56;;;23.39;63.35
6198;BME280;3132;42.622;23.328;2023-09-19T12:26:39;93018.34;;;23.28;63.00
6198;BME280;3132;42.622;23.328;2023-09-19T12:29:11;93018.00;;;23.14;62.68
6198;BME280;3132;42.622;23.328;2023-09-19T12:31:50;93013.50;;;23.34;61.79
6198;BME280;3132;42.622;23.328;2023-09-19T12:34:19;93008.19;;;23.03;63.98
6198;BME280;3132;42.622;23.328;2023-09-19T12:36:45;93009.13;;;22.95;64.79
6198;BME280;3132;42.622;23.328;2023-09-19T12:39:10;92997.44;;;23.15;63.99
6198;BME280;3132;42.622;23.328;2023-09-19T12:41:37;92983.16;;;23.23;63.43
6198;BME280;3132;42.622;23.328;2023-09-19T12:44:03;92973.38;;;23.11;62.56
6198;BME280;3132;42.622;23.328;2023-09-19T12:46:33;92982.75;;;23.05;64.06
6198;BME280;3132;42.622;23.328;2023-09-19T12:49:18;92990.72;;;23.05;64.47
6198;BME280;3132;42.622;23.328;2023-09-19T12:51:46;92988.25;;;23.12;66.51
6198;BME280;3132;42.622;23.328;2023-09-19T12:54:12;93002.38;;;23.47;63.11
6198;BME280;3132;42.622;23.328;2023-09-19T12:56:43;93001.34;;;23.71;62.09
6198;BME280;3132;42.622;23.328;2023-09-19T12:59:14;92999.03;;;23.69;61.88
6198;BME280;3132;42.622;23.328;2023-09-19T13:01:41;92975.31;;;23.45;62.02
6198;BME280;3132;42.622;23.328;2023-09-19T13:04:21;93001.28;;;23.67;61.89
6198;BME280;3132;42.622;23.328;2023-09-19T13:06:55;92993.34;;;23.02;64.22
6198;BME280;3132;42.622;23.328;2023-09-19T13:09:26;92987.38;;;23.08;65.80
6198;BME280;3132;42.622;23.328;2023-09-19T13:11:59;92981.91;;;23.51;62.71
6198;BME280;3132;42.622;23.328;2023-09-19T13:14:29;92985.41;;;23.55;62.32
6198;BME280;3132;42.622;23.328;2023-09-19T13:17:09;92970.59;;;23.39;63.95
6198;BME280;3132;42.622;23.328;2023-09-19T13:19:50;92980.38;;;23.69;62.49
6198;BME280;3132;42.622;23.328;2023-09-19T13:22:42;92979.47;;;23.62;62.67
6198;BME280;3132;42.622;23.328;2023-09-19T13:25:09;92974.69;;;23.71;61.36
6198;BME280;3132;42.622;23.328;2023-09-19T13:27:49;92968.47;;;23.83;60.91
6198;BME280;3132;42.622;23.328;2023-09-19T13:30:20;92958.13;;;23.62;61.96
6198;BME280;3132;42.622;23.328;2023-09-19T13:32:46;92973.09;;;23.86;62.11
6198;BME280;3132;42.622;23.328;2023-09-19T13:35:13;92966.00;;;23.93;61.57
6198;BME280;3132;42.622;23.328;2023-09-19T13:37:39;92963.25;;;23.90;61.03
6198;BME280;3132;42.622;23.328;2023-09-19T13:40:09;92953.00;;;23.92;60.55
6198;BME280;3132;42.622;23.328;2023-09-19T13:42:36;92971.75;;;23.95;61.70
6198;BME280;3132;42.622;23.328;2023-09-19T13:45:05;92960.47;;;24.02;60.43
6198;BME280;3132;42.622;23.328;2023-09-19T13:47:31;92960.06;;;24.19;60.20
6198;BME280;3132;42.622;23.328;2023-09-19T13:49:58;92959.34;;;24.03;60.91
6198;BME280;3132;42.622;23.328;2023-09-19T13:52:23;92963.56;;;24.04;59.83
6198;BME280;3132;42.622;23.328;2023-09-19T13:54:50;92925.25;;;23.73;60.19
6198;BME280;3132;42.622;23.328;2023-09-19T13:57:16;92956.53;;;23.77;61.48
6198;BME280;3132;42.622;23.328;2023-09-19T13:59:42;92960.94;;;23.88;61.11
6198;BME280;3132;42.622;23.328;2023-09-19T14:02:07;92957.38;;;23.81;63.21